Time;durP1;ratioP1;P1;durP2;ratioP2;P2;SDS_P1;SDS_P2;PMS_P1;PMS_P2;Temp;Humidity;BMP_temperature;BMP_pressure;BME280_temperature;BME280_humidity;BME280_pressure;Samples;Min_cycle;Max_cycle;Signal;HPM_P1;HPM_P2
2021/11/16 00:00:41;;;;;;;48.50;20.77;;;;;;;3.93;100.00;100083.22;4993052;28;20049;-62
2021/11/16 00:03:07;;;;;;;56.53;24.17;;;;;;;3.85;100.00;100078.81;4999834;28;20036;-62
2021/11/16 00:05:32;;;;;;;60.75;23.92;;;;;;;3.91;100.00;100079.91;5002101;28;20696;-60
2021/11/16 00:07:58;;;;;;;54.10;22.88;;;;;;;3.95;100.00;100081.22;4993651;28;20141;-60
2021/11/16 00:10:23;;;;;;;52.42;22.20;;;;;;;3.91;100.00;100071.97;4998428;28;20049;-62
2021/11/16 00:12:49;;;;;;;52.50;23.17;;;;;;;3.90;100.00;100072.97;5000780;28;20033;-61
2021/11/16 00:15:14;;;;;;;49.65;21.77;;;;;;;3.94;100.00;100074.25;4999981;28;20030;-60
2021/11/16 00:17:40;;;;;;;49.53;22.10;;;;;;;3.91;100.00;100074.59;5000982;28;20038;-60
2021/11/16 00:20:09;;;;;;;53.05;22.33;;;;;;;3.91;100.00;100079.91;5002645;28;20342;-61
2021/11/16 00:22:35;;;;;;;51.90;21.00;;;;;;;4.07;100.00;100084.28;5000999;28;20046;-61
2021/11/16 00:27:29;;;;;;;64.65;27.15;;;;;;;4.06;100.00;100072.81;4999158;28;20541;-61
2021/11/16 00:29:54;;;;;;;65.72;26.40;;;;;;;4.07;100.00;100066.53;4996907;28;20034;-61
2021/11/16 00:32:20;;;;;;;58.83;25.02;;;;;;;4.05;100.00;100065.88;4995534;28;20448;-61
2021/11/16 00:34:45;;;;;;;63.30;27.10;;;;;;;4.01;100.00;100069.06;5000248;28;20037;-61
2021/11/16 00:37:10;;;;;;;68.60;26.85;;;;;;;3.99;100.00;100071.88;4999290;28;20511;-61
2021/11/16 00:39:36;;;;;;;61.85;25.90;;;;;;;3.95;100.00;100065.31;4998944;28;20068;-63
2021/11/16 00:42:01;;;;;;;60.88;24.85;;;;;;;3.96;100.00;100058.16;5000139;28;20485;-62
2021/11/16 00:44:27;;;;;;;61.60;25.27;;;;;;;4.00;100.00;100057.63;4996490;28;20045;-61
2021/11/16 00:46:52;;;;;;;57.38;24.50;;;;;;;4.01;100.00;100061.91;4997455;28;20714;-61
2021/11/16 00:49:18;;;;;;;56.67;24.27;;;;;;;3.95;100.00;100053.88;5000382;28;20650;-61
2021/11/16 00:51:44;;;;;;;55.70;23.20;;;;;;;3.90;100.00;100062.38;4998263;28;20042;-61
2021/11/16 00:54:09;;;;;;;54.80;24.10;;;;;;;3.98;100.00;100056.97;4999161;28;20036;-61
2021/11/16 00:56:35;;;;;;;69.28;27.83;;;;;;;4.02;100.00;100050.31;5003361;28;20053;-61
2021/11/16 00:59:00;;;;;;;62.25;24.85;;;;;;;3.93;100.00;100046.09;5003812;28;20377;-61
2021/11/16 01:01:25;;;;;;;50.78;23.17;;;;;;;3.99;100.00;100050.66;5001906;28;20141;-61
2021/11/16 01:03:51;;;;;;;52.13;21.65;;;;;;;3.98;100.00;100049.03;4995070;28;20718;-62
2021/11/16 01:06:16;;;;;;;50.20;21.52;;;;;;;4.03;100.00;100041.34;5000475;28;20489;-61
2021/11/16 01:08:42;;;;;;;51.15;22.83;;;;;;;4.02;100.00;100044.16;5004538;28;20038;-61
2021/11/16 01:11:07;;;;;;;48.47;21.55;;;;;;;4.02;100.00;100046.81;4998125;28;20058;-61
2021/11/16 01:13:34;;;;;;;59.17;24.45;;;;;;;3.99;100.00;100040.06;4996262;28;20506;-60
2021/11/16 01:16:00;;;;;;;56.95;23.45;;;;;;;3.96;100.00;100040.41;4995799;28;20138;-61
2021/11/16 01:18:26;;;;;;;51.60;22.63;;;;;;;3.97;100.00;100034.13;4999122;28;20030;-61
2021/11/16 01:20:51;;;;;;;52.40;22.77;;;;;;;4.04;100.00;100035.06;4998718;28;20725;-61
2021/11/16 01:23:18;;;;;;;49.20;22.85;;;;;;;4.08;100.00;100036.31;5000710;28;20468;-60
2021/11/16 01:25:45;;;;;;;54.88;22.67;;;;;;;4.08;100.00;100036.31;4995596;28;20424;-61
2021/11/16 01:28:12;;;;;;;51.42;22.10;;;;;;;4.08;100.00;100033.66;5002666;28;20109;-61
2021/11/16 01:30:38;;;;;;;54.10;21.83;;;;;;;4.07;100.00;100031.22;5003293;28;20569;-61
2021/11/16 01:33:15;;;;;;;49.20;22.52;;;;;;;4.08;100.00;100041.63;4999080;28;20534;-61
2021/11/16 01:35:42;;;;;;;55.70;22.13;;;;;;;3.97;100.00;100041.22;5003038;28;20038;-61
2021/11/16 01:38:09;;;;;;;53.58;23.35;;;;;;;4.08;100.00;100038.16;4992776;28;20633;-61
2021/11/16 01:40:34;;;;;;;50.78;22.33;;;;;;;4.10;100.00;100042.28;4996718;28;20527;-60
2021/11/16 01:43:01;;;;;;;50.10;22.10;;;;;;;4.08;100.00;100033.66;5003279;28;20025;-61
2021/11/16 01:45:27;;;;;;;52.40;22.65;;;;;;;4.14;100.00;100040.06;4997177;28;20137;-60
2021/11/16 01:47:52;;;;;;;48.72;21.45;;;;;;;4.17;100.00;100033.59;4999111;28;20562;-61
2021/11/16 01:50:19;;;;;;;53.22;22.25;;;;;;;4.18;100.00;100032.59;5003308;28;20326;-60
2021/11/16 01:52:44;;;;;;;52.78;22.27;;;;;;;4.18;100.00;100032.59;4991863;28;20400;-60
2021/11/16 01:55:10;;;;;;;50.60;23.30;;;;;;;4.09;100.00;100030.03;5002939;28;20049;-60
2021/11/16 01:57:36;;;;;;;49.92;22.33;;;;;;;4.08;100.00;100022.25;4997847;28;20053;-61
2021/11/16 02:00:07;;;;;;;59.90;24.23;;;;;;;3.95;100.00;100025.50;5001921;28;20034;-59
2021/11/16 02:02:32;;;;;;;51.75;21.58;;;;;;;3.95;100.00;100033.47;4995921;28;20117;-61
2021/11/16 02:04:57;;;;;;;47.83;22.52;;;;;;;3.92;100.00;100033.84;5000688;28;20088;-61
2021/11/16 02:07:23;;;;;;;47.60;21.65;;;;;;;3.97;100.00;100042.09;5001845;28;20081;-61
2021/11/16 02:09:48;;;;;;;45.90;21.45;;;;;;;3.92;100.00;100027.69;4998314;28;20037;-61
2021/11/16 02:12:14;;;;;;;50.30;23.33;;;;;;;3.94;100.00;100029.16;4997657;28;20038;-61
2021/11/16 02:14:39;;;;;;;46.83;21.15;;;;;;;3.92;100.00;100025.88;5002417;28;20030;-61
2021/11/16 02:17:05;;;;;;;49.60;22.23;;;;;;;3.97;100.00;100014.72;5002063;28;20111;-61
2021/11/16 02:19:31;;;;;;;47.30;20.17;;;;;;;4.13;100.00;100008.44;5003447;28;20034;-60
2021/11/16 02:21:57;;;;;;;49.17;21.48;;;;;;;4.17;100.00;100012.34;5002963;28;20125;-61
2021/11/16 02:24:22;;;;;;;48.22;21.83;;;;;;;4.18;100.00;100006.06;4992940;28;20034;-61
2021/11/16 02:26:48;;;;;;;46.47;21.10;;;;;;;4.19;100.00;100007.69;4997942;28;20492;-61
2021/11/16 02:29:13;;;;;;;45.15;20.52;;;;;;;4.14;100.00;100005.59;5000443;28;20038;-61
2021/11/16 02:31:39;;;;;;;46.92;22.20;;;;;;;4.09;100.00;100003.50;4994139;28;20038;-61
2021/11/16 02:34:05;;;;;;;43.20;22.08;;;;;;;4.03;100.00;99993.59;5006583;28;20029;-61
2021/11/16 02:36:31;;;;;;;46.22;21.13;;;;;;;4.01;100.00;99997.44;4995998;28;20042;-60
2021/11/16 02:38:57;;;;;;;56.85;24.05;;;;;;;3.99;100.00;99999.44;4999888;28;20449;-61
2021/11/16 02:41:29;;;;;;;56.75;24.15;;;;;;;3.98;100.00;99998.63;5000458;28;20049;-60
2021/11/16 02:43:54;;;;;;;50.58;23.63;;;;;;;3.93;100.00;99998.34;5000370;28;20045;-60
2021/11/16 02:46:19;;;;;;;48.15;23.05;;;;;;;3.97;100.00;99993.50;5002456;28;20557;-61
2021/11/16 02:48:46;;;;;;;53.58;24.00;;;;;;;4.06;100.00;99995.06;5005917;28;20034;-61
2021/11/16 02:51:11;;;;;;;44.28;20.58;;;;;;;4.02;100.00;99997.28;5003719;28;20069;-60
2021/11/16 02:53:40;;;;;;;49.08;22.13;;;;;;;3.95;100.00;99985.72;4995829;28;20583;-61
2021/11/16 02:56:06;;;;;;;50.22;22.52;;;;;;;3.96;100.00;99981.25;4995497;28;20045;-61
2021/11/16 02:58:31;;;;;;;45.20;20.58;;;;;;;3.94;100.00;99980.59;5000398;28;20525;-61
2021/11/16 03:01:07;;;;;;;47.97;20.65;;;;;;;3.94;100.00;99984.06;5004436;28;20073;-60
2021/11/16 03:03:32;;;;;;;48.47;21.35;;;;;;;3.90;100.00;99977.50;4998244;28;20036;-61
2021/11/16 03:05:58;;;;;;;50.47;21.02;;;;;;;4.02;100.00;99981.34;5000697;28;20042;-61
2021/11/16 03:08:25;;;;;;;51.58;21.00;;;;;;;3.99;100.00;99981.69;5005234;28;20037;-61
2021/11/16 03:10:54;;;;;;;46.63;21.75;;;;;;;4.01;100.00;99977.03;5001040;28;20612;-60
2021/11/16 03:13:20;;;;;;;47.08;21.75;;;;;;;4.05;100.00;99980.97;5000074;28;20065;-60
2021/11/16 03:15:45;;;;;;;46.40;20.20;;;;;;;4.06;100.00;99977.31;4999951;28;20125;-60
2021/11/16 03:18:11;;;;;;;48.53;20.73;;;;;;;4.09;100.00;99976.97;5003982;28;20033;-61
2021/11/16 03:20:37;;;;;;;44.63;19.83;;;;;;;4.14;100.00;99970.28;4999064;28;20050;-60
2021/11/16 03:23:12;;;;;;;46.47;20.80;;;;;;;4.14;100.00;99972.94;5006053;28;20146;-60
2021/11/16 03:25:42;;;;;;;49.22;20.85;;;;;;;4.17;100.00;99969.91;4999605;28;20125;-60
2021/11/16 03:28:10;;;;;;;58.65;23.60;;;;;;;4.17;100.00;99970.75;4999232;28;20369;-61
2021/11/16 03:30:35;;;;;;;71.00;26.48;;;;;;;4.18;100.00;99969.72;5003261;28;20042;-60
2021/11/16 03:33:01;;;;;;;68.85;28.48;;;;;;;4.17;100.00;99964.59;5003385;28;20084;-60
2021/11/16 03:35:27;;;;;;;64.43;27.05;;;;;;;4.18;100.00;99960.97;4999403;28;20547;-60
2021/11/16 03:37:55;;;;;;;57.65;24.55;;;;;;;4.19;100.00;99962.59;4999179;28;20755;-61
2021/11/16 03:40:21;;;;;;;53.30;23.02;;;;;;;4.19;100.00;99955.44;5003497;28;20393;-60
2021/11/16 03:42:47;;;;;;;49.65;22.95;;;;;;;4.20;100.00;99954.47;5005441;28;20030;-61
2021/11/16 03:45:14;;;;;;;51.80;23.50;;;;;;;4.16;100.00;99961.13;5003750;28;20489;-60
2021/11/16 03:47:40;;;;;;;48.70;21.92;;;;;;;4.11;100.00;99953.72;5004653;28;20056;-61
2021/11/16 03:50:07;;;;;;;48.47;20.75;;;;;;;4.11;100.00;99961.66;5002295;28;20396;-60
2021/11/16 03:52:35;;;;;;;48.53;22.70;;;;;;;4.13;100.00;99960.69;5001049;28;20026;-61
2021/11/16 03:55:02;;;;;;;51.55;21.75;;;;;;;4.20;100.00;99957.13;5000903;28;20038;-61
2021/11/16 03:57:29;;;;;;;50.70;21.75;;;;;;;4.18;100.00;99968.91;5003718;28;20571;-61
2021/11/16 03:59:54;;;;;;;46.83;21.63;;;;;;;4.20;100.00;99965.06;5003865;28;20045;-61
2021/11/16 04:02:19;;;;;;;47.58;20.15;;;;;;;4.18;100.00;99963.59;4997956;28;20420;-61
2021/11/16 04:04:46;;;;;;;43.42;19.45;;;;;;;4.17;100.00;99954.84;4999361;28;20854;-61
2021/11/16 04:07:11;;;;;;;41.67;19.90;;;;;;;4.20;100.00;99958.94;5002578;28;20072;-61
2021/11/16 04:09:37;;;;;;;42.97;20.70;;;;;;;4.18;100.00;99953.81;5004396;28;20396;-61
2021/11/16 04:12:03;;;;;;;41.85;19.35;;;;;;;4.15;100.00;99963.97;4994973;28;20053;-61
2021/11/16 04:14:28;;;;;;;45.55;20.92;;;;;;;4.17;100.00;99959.28;5000037;28;20041;-62
2021/11/16 04:16:54;;;;;;;54.70;21.65;;;;;;;4.23;100.00;99962.03;4997505;28;20034;-61
2021/11/16 04:19:20;;;;;;;48.78;20.55;;;;;;;4.22;100.00;99960.41;5004669;28;20030;-61
2021/11/16 04:21:46;;;;;;;50.20;21.65;;;;;;;4.25;100.00;99953.91;4999505;28;20459;-61
2021/11/16 04:24:11;;;;;;;40.63;19.70;;;;;;;4.23;100.00;99955.91;4998777;28;20621;-61
2021/11/16 04:26:37;;;;;;;46.03;19.38;;;;;;;4.17;100.00;99952.19;4999013;28;20420;-61
2021/11/16 04:29:03;;;;;;;42.50;18.88;;;;;;;4.12;100.00;99951.91;5004446;28;20029;-61
2021/11/16 04:31:29;;;;;;;44.80;19.60;;;;;;;4.16;100.00;99952.34;4999281;28;20385;-61
2021/11/16 04:34:02;;;;;;;46.45;20.13;;;;;;;4.10;100.00;99951.25;4994371;28;20038;-61
2021/11/16 04:36:28;;;;;;;43.05;19.75;;;;;;;4.08;100.00;99955.91;4997590;28;20494;-61
2021/11/16 04:38:53;;;;;;;45.38;21.02;;;;;;;4.12;100.00;99946.59;4998068;28;20033;-61
2021/11/16 04:41:18;;;;;;;48.75;20.38;;;;;;;4.14;100.00;99951.72;4990338;28;20045;-61
2021/11/16 04:43:44;;;;;;;42.85;19.17;;;;;;;4.16;100.00;99944.38;5003312;28;20029;-61
2021/11/16 04:46:12;;;;;;;43.65;21.30;;;;;;;4.17;100.00;99938.06;5003558;28;20041;-61
2021/11/16 05:04:16;;;;;;;41.13;19.40;;;;;;;4.09;100.00;99939.84;5003278;28;20416;-60
2021/11/16 05:06:42;;;;;;;44.50;20.98;;;;;;;4.05;100.00;99932.41;4992240;28;20038;-61
2021/11/16 05:09:08;;;;;;;42.80;19.83;;;;;;;4.14;100.00;99935.78;5000677;28;20033;-61
2021/11/16 05:11:33;;;;;;;42.22;18.98;;;;;;;4.13;100.00;99934.16;4998876;28;20154;-61
2021/11/16 05:13:59;;;;;;;43.58;19.65;;;;;;;4.14;100.00;99941.09;4998602;28;20455;-62
2021/11/16 05:16:25;;;;;;;47.42;21.40;;;;;;;4.09;100.00;99945.13;5000668;28;20459;-62
2021/11/16 05:18:51;;;;;;;46.30;19.98;;;;;;;4.05;100.00;99943.03;4997960;28;20030;-62
2021/11/16 05:21:16;;;;;;;44.20;20.20;;;;;;;4.04;100.00;99950.16;4995527;28;20050;-62
2021/11/16 05:23:50;;;;;;;45.80;19.77;;;;;;;4.08;100.00;99946.13;4996350;28;20096;-61
2021/11/16 05:26:16;;;;;;;44.75;19.95;;;;;;;4.07;100.00;99951.63;4999233;28;20120;-63
2021/11/16 05:28:41;;;;;;;46.05;20.30;;;;;;;4.08;100.00;99959.38;5002354;28;20508;-64
2021/11/16 05:31:07;;;;;;;41.45;19.48;;;;;;;4.08;100.00;99956.75;4999718;28;20092;-61
2021/11/16 05:33:32;;;;;;;48.05;20.20;;;;;;;4.07;100.00;99957.75;4993750;28;20088;-65
2021/11/16 05:35:59;;;;;;;43.00;19.85;;;;;;;4.11;100.00;99955.53;4998989;28;20050;-61
2021/11/16 05:38:26;;;;;;;44.28;17.48;;;;;;;4.10;100.00;99952.06;4998434;28;20034;-64
2021/11/16 05:40:51;;;;;;;45.88;19.08;;;;;;;4.16;100.00;99957.66;5001635;28;20874;-61
2021/11/16 05:43:17;;;;;;;44.47;20.00;;;;;;;4.18;100.00;99953.81;4998956;28;20026;-61
2021/11/16 05:45:44;;;;;;;42.65;18.83;;;;;;;4.17;100.00;99961.94;4993668;28;20516;-60
2021/11/16 05:48:09;;;;;;;43.17;19.30;;;;;;;4.14;100.00;99963.13;4998562;28;20472;-61
2021/11/16 05:50:36;;;;;;;40.22;18.52;;;;;;;4.18;100.00;99958.31;5001124;28;20187;-61
2021/11/16 05:53:03;;;;;;;40.15;19.13;;;;;;;4.21;100.00;99952.63;4995345;28;20104;-62
2021/11/16 05:55:28;;;;;;;44.35;19.35;;;;;;;4.22;100.00;99959.56;4994861;28;20050;-60
2021/11/16 05:57:53;;;;;;;42.28;18.88;;;;;;;4.21;100.00;99953.44;4990847;28;20410;-61
2021/11/16 06:00:19;;;;;;;43.42;19.30;;;;;;;4.17;100.00;99951.34;5003084;28;20034;-61
2021/11/16 06:02:45;;;;;;;45.10;19.67;;;;;;;4.14;100.00;99957.81;4999808;28;20018;-62
2021/11/16 06:05:10;;;;;;;46.17;18.80;;;;;;;4.25;100.00;99948.59;4992067;28;20064;-61
2021/11/16 06:07:36;;;;;;;40.35;18.08;;;;;;;4.28;100.00;99964.16;5001962;28;20029;-61
2021/11/16 06:10:02;;;;;;;46.08;18.65;;;;;;;4.29;100.00;99955.19;5003483;28;20037;-60
2021/11/16 06:12:27;;;;;;;45.42;19.70;;;;;;;4.23;100.00;99969.19;5004189;28;20081;-61
2021/11/16 06:14:53;;;;;;;39.92;19.08;;;;;;;4.28;100.00;99961.50;5004400;28;20053;-61
2021/11/16 06:17:20;;;;;;;47.97;17.70;;;;;;;4.14;100.00;99962.31;4999273;28;20057;-62
2021/11/16 06:19:45;;;;;;;40.58;18.63;;;;;;;4.22;100.00;99959.56;5000400;28;20042;-61
2021/11/16 06:22:11;;;;;;;38.85;17.23;;;;;;;4.22;100.00;99970.19;4999450;28;20049;-62
2021/11/16 06:24:37;;;;;;;40.55;17.88;;;;;;;4.18;100.00;99966.25;4995513;28;20188;-62
2021/11/16 06:27:03;;;;;;;38.22;17.67;;;;;;;4.09;100.00;99970.81;4996195;28;20117;-61
2021/11/16 06:29:29;;;;;;;40.40;18.38;;;;;;;4.10;100.00;99977.78;5000646;28;20041;-62
2021/11/16 06:31:54;;;;;;;38.38;16.50;;;;;;;4.16;100.00;99981.53;5006664;28;20045;-62
2021/11/16 06:34:19;;;;;;;43.17;17.40;;;;;;;4.10;100.00;99975.97;5000806;28;20041;-62
2021/11/16 06:36:47;;;;;;;39.60;17.25;;;;;;;4.04;100.00;99979.34;4998443;28;20038;-61
2021/11/16 06:39:17;;;;;;;41.83;20.35;;;;;;;4.04;100.00;99983.81;4999357;28;20037;-62
2021/11/16 06:41:43;;;;;;;38.88;17.65;;;;;;;4.15;100.00;99982.56;5004714;28;20049;-61
2021/11/16 06:44:09;;;;;;;42.63;19.02;;;;;;;4.13;100.00;99987.22;5003075;28;20435;-61
2021/11/16 06:46:35;;;;;;;49.72;18.83;;;;;;;4.16;100.00;99981.53;4987917;28;20039;-62
2021/11/16 06:49:01;;;;;;;41.80;18.70;;;;;;;4.16;100.00;99990.31;5002871;28;20109;-61
2021/11/16 06:51:26;;;;;;;42.67;18.17;;;;;;;4.13;100.00;99996.00;5004068;28;20049;-61
2021/11/16 06:53:52;;;;;;;42.58;18.23;;;;;;;4.12;100.00;99991.69;5006064;28;20100;-61
2021/11/16 06:56:25;;;;;;;40.97;17.30;;;;;;;4.11;100.00;99990.84;5006119;28;20045;-61
2021/11/16 06:58:50;;;;;;;37.53;18.05;;;;;;;4.09;100.00;99998.19;5004505;28;20080;-61
2021/11/16 07:01:16;;;;;;;39.20;17.55;;;;;;;4.14;100.00;100000.28;5000909;28;20046;-62
2021/11/16 07:03:47;;;;;;;38.55;18.35;;;;;;;4.09;100.00;99994.69;5006582;28;20046;-62
2021/11/16 07:06:12;;;;;;;48.90;20.85;;;;;;;4.10;100.00;100002.50;5004238;28;20157;-62
2021/11/16 07:08:40;;;;;;;45.00;20.10;;;;;;;4.15;100.00;99999.28;5003215;28;20074;-62
2021/11/16 07:11:17;;;;;;;44.03;19.35;;;;;;;4.20;100.00;100004.06;4997530;28;20448;-62
2021/11/16 07:13:56;;;;;;;47.58;21.00;;;;;;;4.25;100.00;100007.00;4996099;28;20038;-61
2021/11/16 07:16:21;;;;;;;44.60;19.52;;;;;;;4.22;100.00;100004.69;4998499;28;20404;-62
2021/11/16 07:18:51;;;;;;;43.42;19.63;;;;;;;4.16;100.00;100003.56;5004704;28;20613;-61
2021/11/16 07:21:19;;;;;;;41.03;19.58;;;;;;;4.20;100.00;100004.06;5000214;28;20731;-62
2021/11/16 07:23:44;;;;;;;40.90;19.58;;;;;;;4.19;100.00;100007.69;5003075;28;20528;-62
2021/11/16 07:26:14;;;;;;;38.65;18.95;;;;;;;4.19;100.00;100005.03;5000410;28;20042;-62
2021/11/16 07:28:49;;;;;;;43.65;18.75;;;;;;;4.23;100.00;99993.88;5004854;28;20278;-62
2021/11/16 07:31:22;;;;;;;43.67;19.83;;;;;;;4.30;100.00;100004.63;5000572;28;20064;-62
2021/11/16 07:33:49;;;;;;;42.72;19.25;;;;;;;4.32;100.00;100002.59;5004969;28;20037;-62
2021/11/16 07:36:16;;;;;;;37.53;17.60;;;;;;;4.35;100.00;100006.72;5001038;28;20042;-62
2021/11/16 07:38:44;;;;;;;39.63;16.98;;;;;;;4.39;100.00;100003.50;5004338;28;20042;-62
2021/11/16 07:41:09;;;;;;;43.50;18.75;;;;;;;4.40;100.00;100002.50;5001172;28;20135;-60
2021/11/16 07:43:35;;;;;;;40.20;17.60;;;;;;;4.42;100.00;100008.47;5002278;28;20045;-62
2021/11/16 07:46:01;;;;;;;42.47;17.48;;;;;;;4.38;100.00;100015.13;4997884;28;20038;-61
2021/11/16 07:48:27;;;;;;;37.10;17.02;;;;;;;4.40;100.00;100007.00;4999433;28;20038;-62
2021/11/16 07:50:53;;;;;;;34.78;17.27;;;;;;;4.36;100.00;100018.97;4991699;28;20129;-61
2021/11/16 07:53:20;;;;;;;48.35;19.17;;;;;;;4.35;100.00;100012.03;4998368;28;20088;-61
2021/11/16 07:55:51;;;;;;;35.58;16.77;;;;;;;4.31;100.00;100012.38;5005036;28;20360;-62
2021/11/16 07:58:16;;;;;;;38.58;18.48;;;;;;;4.26;100.00;100009.44;5004947;28;20065;-61
2021/11/16 08:00:44;;;;;;;45.05;17.85;;;;;;;4.30;100.00;100013.38;4997602;28;20042;-61
2021/11/16 08:03:13;;;;;;;39.55;17.98;;;;;;;4.30;100.00;100017.88;4999528;28;20552;-62
2021/11/16 08:08:18;;;;;;;36.30;16.40;;;;;;;4.38;100.00;100016.97;5000207;28;20854;-62
2021/11/16 08:10:46;;;;;;;41.55;18.58;;;;;;;4.41;100.00;100020.06;5000865;28;20562;-61
2021/11/16 08:13:16;;;;;;;42.97;17.55;;;;;;;4.43;100.00;100028.69;5004434;28;20358;-61
2021/11/16 08:15:43;;;;;;;39.90;18.35;;;;;;;4.42;100.00;100024.38;4992988;28;20429;-61
2021/11/16 08:18:13;;;;;;;44.75;19.02;;;;;;;4.44;100.00;100022.38;4999486;28;20436;-61
2021/11/16 08:20:41;;;;;;;36.72;17.85;;;;;;;4.45;100.00;100017.88;4998260;28;20086;-62
2021/11/16 08:23:08;;;;;;;44.95;19.13;;;;;;;4.47;100.00;100016.69;5000932;28;20029;-61
2021/11/16 08:25:34;;;;;;;41.33;17.70;;;;;;;4.49;100.00;100020.00;4990564;28;20041;-62
2021/11/16 08:28:01;;;;;;;39.38;17.30;;;;;;;4.55;100.00;100015.78;5002010;28;20033;-61
2021/11/16 08:30:27;;;;;;;42.15;18.17;;;;;;;4.54;100.00;100017.63;4999298;28;20054;-61
2021/11/16 08:32:57;;;;;;;35.15;17.45;;;;;;;4.53;100.00;100023.09;5002516;28;20029;-61
2021/11/16 08:35:24;;;;;;;37.80;18.25;;;;;;;4.53;100.00;100020.44;4984199;28;20046;-61
2021/11/16 08:37:55;;;;;;;34.20;17.35;;;;;;;4.51;100.00;100019.78;4997752;28;20014;-61
2021/11/16 08:40:21;;;;;;;;;;;;;;;4.54;100.00;100009.66;4996579;28;20069;-60
2021/11/16 08:42:57;;;;;;;37.08;17.85;;;;;;;4.50;100.00;100026.13;5001432;28;19925;-61
2021/11/16 08:45:30;;;;;;;37.25;17.88;;;;;;;4.52;100.00;100016.97;5003092;28;20046;-61
2021/11/16 08:48:20;;;;;;;34.55;16.52;;;;;;;4.42;100.00;100023.53;5003599;28;20034;-62
2021/11/16 08:50:52;;;;;;;41.15;16.65;;;;;;;4.51;100.00;100022.44;5003190;28;20836;-61
2021/11/16 08:53:35;;;;;;;39.42;16.70;;;;;;;4.50;100.00;100024.28;5003464;28;20113;-61
2021/11/16 08:56:15;;;;;;;38.40;16.92;;;;;;;4.43;100.00;100014.59;4992610;28;20042;-62
2021/11/16 08:58:40;;;;;;;34.83;15.82;;;;;;;4.47;100.00;100016.69;4995751;28;20044;-61
2021/11/16 09:01:07;;;;;;;40.17;17.25;;;;;;;4.46;100.00;100015.03;4996992;28;20042;-61
2021/11/16 09:03:40;;;;;;;40.60;17.20;;;;;;;4.40;100.00;100013.13;4994455;28;20049;-62
2021/11/16 09:06:18;;;;;;;34.90;16.13;;;;;;;4.40;100.00;100009.66;4996357;28;20060;-62
2021/11/16 09:08:44;;;;;;;33.38;15.68;;;;;;;4.41;100.00;100006.78;4997840;28;20030;-61
2021/11/16 09:11:17;;;;;;;33.25;15.80;;;;;;;4.48;99.89;100009.56;4994539;28;20212;-62
2021/11/16 09:13:43;;;;;;;34.10;16.30;;;;;;;4.52;100.00;100002.88;5003252;28;20037;-61
2021/11/16 09:16:12;;;;;;;32.25;15.18;;;;;;;4.56;100.00;100005.97;5002284;28;20422;-62
2021/11/16 09:19:05;;;;;;;33.22;16.63;;;;;;;4.60;100.00;99994.81;4997081;28;20535;-64
2021/11/16 09:21:39;;;;;;;34.25;16.13;;;;;;;4.66;100.00;99993.22;4992763;28;20038;-61
2021/11/16 09:24:06;;;;;;;34.95;15.25;;;;;;;4.60;99.08;99994.00;5001075;28;20026;-61
2021/11/16 09:29:21;;;;;;;31.25;15.13;;;;;;;4.62;99.66;100005.22;5000023;28;20096;-61
2021/11/16 09:31:59;;;;;;;30.20;15.38;;;;;;;4.65;98.67;100008.34;4994400;28;20578;-62
2021/11/16 09:34:27;;;;;;;29.52;16.00;;;;;;;4.65;98.80;100010.19;4996341;28;20038;-61
2021/11/16 09:37:06;;;;;;;29.88;14.07;;;;;;;4.64;98.46;100005.88;4996533;28;20038;-61
2021/11/16 09:39:37;;;;;;;34.42;15.35;;;;;;;4.63;98.04;100009.53;4991167;28;20033;-61
2021/11/16 09:42:05;;;;;;;30.77;14.73;;;;;;;4.68;98.33;99999.19;4989854;28;20045;-62
2021/11/16 09:44:44;;;;;;;30.45;14.73;;;;;;;4.70;97.92;100002.50;4989488;28;20030;-61
2021/11/16 09:47:17;;;;;;;29.15;14.50;;;;;;;4.67;98.05;99992.25;4999577;28;20052;-61
2021/11/16 09:49:55;;;;;;;26.90;13.82;;;;;;;4.69;98.10;99998.16;5005108;28;20025;-62
2021/11/16 09:52:35;;;;;;;31.45;14.85;;;;;;;4.70;98.33;99995.34;5004242;28;20038;-61
2021/11/16 09:55:06;;;;;;;26.30;14.02;;;;;;;4.73;97.98;99999.47;4998341;28;20403;-61
2021/11/16 09:57:34;;;;;;;28.10;13.60;;;;;;;4.72;98.02;99993.31;5004098;28;20824;-62
2021/11/16 10:00:24;;;;;;;31.50;14.88;;;;;;;4.78;97.60;99997.06;5006684;28;20040;-61
2021/11/16 10:02:55;;;;;;;30.42;15.10;;;;;;;4.74;97.59;100001.09;5004991;28;20053;-62
2021/11/16 10:05:22;;;;;;;31.00;14.55;;;;;;;4.78;97.65;100002.38;5004369;28;20041;-62
2021/11/16 10:07:48;;;;;;;27.92;13.40;;;;;;;4.78;97.03;100002.38;5012297;28;20068;-62
2021/11/16 10:10:14;;;;;;;27.73;13.85;;;;;;;4.77;97.23;99995.44;5001484;28;20472;-61
2021/11/16 10:12:44;;;;;;;27.00;13.68;;;;;;;4.80;97.26;100000.38;5006007;28;20069;-62
2021/11/16 10:15:13;;;;;;;;;;;;;;;4.78;96.59;99999.72;5006897;28;20037;-61
2021/11/16 10:17:38;;;;;;;26.38;13.10;;;;;;;4.81;96.74;99996.69;4999980;28;20363;-62
2021/11/16 10:20:04;;;;;;;22.45;12.70;;;;;;;4.81;96.21;99994.03;5000267;28;20054;-61
2021/11/16 10:22:31;;;;;;;26.25;12.63;;;;;;;4.80;96.30;99991.56;5003217;28;20534;-62
2021/11/16 10:25:17;;;;;;;23.90;12.57;;;;;;;4.89;96.69;99993.94;5006158;28;20060;-62
2021/11/16 10:27:43;;;;;;;24.63;12.27;;;;;;;4.83;96.06;99986.69;5001961;28;20108;-62
2021/11/16 10:30:11;;;;;;;21.88;11.70;;;;;;;4.71;96.21;99991.66;5000563;28;20030;-62
2021/11/16 10:32:37;;;;;;;28.73;12.82;;;;;;;4.83;96.22;99989.34;5002492;28;20119;-62
2021/11/16 10:35:14;;;;;;;26.88;12.45;;;;;;;4.83;95.41;99989.34;5004141;28;20042;-61
2021/11/16 10:37:46;;;;;;;20.60;11.82;;;;;;;4.80;96.11;99983.59;5006148;28;20774;-62
2021/11/16 10:40:13;;;;;;;21.52;12.45;;;;;;;4.85;96.03;99981.22;5001375;28;20660;-61
2021/11/16 10:42:43;;;;;;;22.55;12.00;;;;;;;4.91;96.01;99980.44;4995273;28;20022;-62
2021/11/16 10:45:13;;;;;;;23.00;11.45;;;;;;;4.87;95.18;99980.03;5005599;28;20030;-61
2021/11/16 10:47:38;;;;;;;25.23;12.70;;;;;;;4.77;94.98;99968.88;5004901;28;20644;-62
2021/11/16 10:50:09;;;;;;;23.25;11.30;;;;;;;4.93;96.33;99968.63;4977479;28;20049;-61
2021/11/16 10:52:36;;;;;;;24.75;13.73;;;;;;;4.98;95.08;99970.72;5001151;28;20384;-62
2021/11/16 10:55:06;;;;;;;20.40;11.70;;;;;;;4.88;94.70;99971.03;4999798;28;20059;-61
2021/11/16 10:57:54;;;;;;;19.80;10.70;;;;;;;4.88;95.15;99964.91;4992091;28;20033;-62
2021/11/16 11:00:41;;;;;;;18.67;9.93;;;;;;;4.76;94.23;99961.91;4999172;28;20466;-62
2021/11/16 11:03:19;;;;;;;21.77;10.85;;;;;;;4.80;94.63;99962.34;4999621;28;20164;-62
2021/11/16 11:05:45;;;;;;;21.92;11.18;;;;;;;4.86;94.74;99958.94;4998851;28;20054;-62
2021/11/16 11:08:12;;;;;;;20.05;11.02;;;;;;;4.89;94.46;99961.22;5005525;28;20380;-62
2021/11/16 11:10:47;;;;;;;21.83;10.30;;;;;;;4.88;94.29;99955.09;5004108;28;20053;-62
2021/11/16 11:13:22;;;;;;;19.70;11.35;;;;;;;5.03;94.10;99951.56;4997966;28;20025;-62
2021/11/16 11:15:48;;;;;;;18.05;10.95;;;;;;;4.91;93.91;99949.41;4991856;28;20707;-62
2021/11/16 11:18:33;;;;;;;23.92;11.40;;;;;;;4.92;94.51;99951.06;5003252;28;20088;-62
2021/11/16 11:21:01;;;;;;;22.30;11.32;;;;;;;4.85;94.84;99934.22;4998627;28;20042;-62
2021/11/16 11:23:33;;;;;;;19.42;10.77;;;;;;;4.95;95.45;99933.91;5005056;28;20471;-62
2021/11/16 11:26:52;;;;;;;23.33;11.75;;;;;;;4.93;95.12;99931.44;5001912;28;20165;-62
2021/11/16 11:29:40;;;;;;;18.40;9.77;;;;;;;4.94;95.59;99925.13;4998570;28;20088;-62
2021/11/16 11:32:06;;;;;;;21.83;11.30;;;;;;;4.97;95.09;99927.41;4993882;28;20049;-62
2021/11/16 11:34:36;;;;;;;22.58;11.25;;;;;;;5.01;94.65;99921.72;5000041;28;20041;-62
2021/11/16 11:37:04;;;;;;;29.73;12.52;;;;;;;4.96;94.91;99912.47;4998793;28;20451;-61
2021/11/16 11:39:31;;;;;;;23.58;12.30;;;;;;;4.98;95.16;99915.75;5005054;28;20084;-61
2021/11/16 11:41:57;;;;;;;24.65;11.23;;;;;;;5.02;94.25;99915.38;5000583;28;20389;-61
2021/11/16 11:44:23;;;;;;;29.35;12.80;;;;;;;5.04;94.83;99905.38;4994959;28;20440;-63